Latest Weather Observations for Tindal

IDD60801

Issued at 4:31 am CST Thursday 28 July 2016 (issued every 30 minutes, with the page automatically refreshed every 10 minutes)

About weather observations | Map of weather stations | Latest weather observations for NT | Other Formats
Station Details ID: 014932 Name: TINDAL RAAF Lat: -14.52 Lon: 132.38 Height: 133.6 m
Data from the previous 72 hours. | See also: Recent months at Tindal
Date/Time
CST
Temp
°C
App
Temp
°C
Dew
Point
°C
Rel
Hum
%
Delta-T
°C
Wind Press
QNH
hPa
Press
MSL
hPa
Rain since
9am
mm
Dir  Spd
km/h
Gust
km/h
Spd
kts
Gust
kts
28/04:00am 17.0 12.7 3.3 40 6.3 SSE 15 15 8 8 1016.9 1016.4 0.0
28/03:30am 16.9 13.1 3.9 42 6.1 SSE 13 15 7 8 1017.0 1016.5 0.0
28/03:00am 17.6 13.9 4.2 41 6.4 SE 13 15 7 8 1016.9 1016.4 0.0
28/02:30am 17.4 13.7 4.7 43 6.1 SSE 13 13 7 7 1017.0 1016.5 0.0
28/02:00am 18.4 15.1 4.6 40 6.6 SE 11 13 6 7 1017.1 1016.6 0.0
28/01:30am 20.2 16.4 3.9 34 7.8 SE 13 15 7 8 1017.2 1016.7 0.0
28/01:00am 21.3 17.2 4.4 33 8.3 SE 15 19 8 10 1017.2 1016.7 0.0
28/12:30am 21.6 17.9 4.2 32 8.5 SE 13 15 7 8 1017.1 1016.6 0.0
28/12:00am 21.8 17.8 4.8 33 8.4 SE 15 20 8 11 1016.9 1016.4 0.0
 
Date/Time
CST
Temp
°C
App
Temp
°C
Dew
Point
°C
Rel
Hum
%
Delta-T
°C
Wind Press
QNH
hPa
Press
MSL
hPa
Rain since
9am
mm
Dir  Spd
km/h
Gust
km/h
Spd
kts
Gust
kts
27/11:30pm 22.2 18.3 5.2 33 8.5 SE 15 20 8 11 1016.8 1016.3 0.0
27/11:00pm 22.3 18.0 5.3 33 8.5 SE 17 20 9 11 1016.6 1016.1 0.0
27/10:30pm 22.9 18.1 5.8 33 8.7 SE 20 26 11 14 1016.7 1016.2 0.0
27/10:00pm 19.9 16.6 6.3 41 6.8 SE 13 15 7 8 1016.5 1016.0 0.0
27/09:30pm 19.8 17.0 6.9 43 6.6 SE 11 13 6 7 1016.3 1015.8 0.0
27/09:00pm 20.3 17.5 7.0 42 6.8 SE 11 11 6 6 1016.1 1015.6 0.0
27/08:30pm 21.1 18.2 6.6 39 7.4 SE 11 13 6 7 1015.6 1015.1 0.0
27/08:00pm 22.3 19.3 6.1 35 8.2 SE 11 11 6 6 1015.3 1014.8 0.0
27/07:30pm 24.6 21.5 5.4 29 9.8 SE 11 13 6 7 1015.2 1014.7 0.0
27/07:00pm 26.7 23.1 5.1 25 11.1 SE 13 13 7 7 1014.7 1014.2 0.0
27/06:30pm 28.5 24.5 4.7 22 12.3 SE 15 20 8 11 1014.4 1013.9 0.0
27/06:00pm 29.6 24.7 4.3 20 13.0 SE 19 30 10 16 1014.0 1013.5 0.0
27/05:30pm 30.2 24.3 4.0 19 13.5 ESE 24 35 13 19 1013.8 1013.3 0.0
27/05:00pm 30.8 24.6 4.5 19 13.7 SE 26 39 14 21 1013.4 1012.9 0.0
27/04:30pm 31.4 25.6 4.2 18 14.2 SE 24 35 13 19 1013.3 1012.8 0.0
27/04:00pm 31.1 25.8 4.8 19 13.8 ESE 22 33 12 18 1013.4 1012.9 0.0
27/03:30pm 31.3 25.6 4.9 19 13.9 ESE 24 39 13 21 1013.3 1012.8 0.0
27/03:00pm 30.8 25.4 4.5 19 13.7 ESE 22 35 12 19 1013.6 1013.1 0.0
27/02:30pm 30.4 23.2 4.9 20 13.3 ESE 32 46 17 25 1014.0 1013.5 0.0
27/02:00pm 30.9 24.5 5.3 20 13.5 SE 28 43 15 23 1014.5 1014.0 0.0
27/01:30pm 29.7 22.9 5.1 21 12.9 SE 30 43 16 23 1015.0 1014.5 0.0
27/01:00pm 29.2 23.0 6.0 23 12.3 E 28 41 15 22 1015.8 1015.2 0.0
27/12:50pm 29.0 22.7 5.8 23 12.2 ESE 28 46 15 25 1015.9 1015.3 0.0
27/12:30pm 28.5 21.5 6.0 24 11.9 ESE 32 43 17 23 1016.2 1015.7 0.0
27/12:24pm 29.2 22.7 6.6 24 12.1 ESE 30 39 16 21 1016.3 1015.8 0.0
27/12:00pm 27.6 20.7 6.4 26 11.2 E 32 44 17 24 1016.7 1016.2 0.0
27/11:57am 27.9 21.0 6.6 26 11.3 E 32 44 17 24 1016.7 1016.2 0.0
27/11:30am 27.7 21.4 5.9 25 11.4 ESE 28 44 15 24 1017.1 1016.6 0.0
27/11:00am 27.5 21.5 5.1 24 11.6 E 26 35 14 19 1017.4 1016.9 0.0
27/10:30am 26.6 20.0 4.4 24 11.2 SE 28 37 15 20 1017.9 1017.4 0.0
27/10:00am 25.1 18.5 4.3 26 10.4 SE 28 37 15 20 1018.1 1017.6 0.0
27/09:30am 23.7 18.7 3.6 27 9.8 ESE 19 30 10 16 1018.2 1017.7 0.0
27/09:00am 22.2 18.3 5.2 33 8.5 SE 15 22 8 12 1018.2 1017.7 0.0
27/08:30am 20.5 16.3 5.7 38 7.4 SE 17 22 9 12 1017.9 1017.4 0.0
27/08:00am 18.4 15.5 6.3 45 6.0 SE 11 17 6 9 1017.5 1017.0 0.0
27/07:30am 15.6 12.8 7.1 57 4.2 SSE 11 11 6 6 1017.1 1016.6 0.0
27/07:00am 14.9 12.5 7.2 60 3.8 ESE 9 11 5 6 1016.6 1016.1 0.0
27/06:30am 15.3 12.6 7.3 59 4.0 SSE 11 13 6 7 1016.4 1015.9 0.0
27/06:00am 16.6 14.3 7.3 54 4.7 ESE 9 11 5 6 1016.1 1015.6 0.0
27/05:30am 16.5 13.9 7.7 56 4.4 SE 11 13 6 7 1016.0 1015.5 0.0
27/05:00am 17.3 14.3 7.6 53 4.9 SE 13 13 7 7 1015.8 1015.2 0.0
27/04:30am 18.9 15.1 7.7 48 5.7 SE 17 20 9 11 1015.5 1015.0 0.0
27/04:00am 19.3 15.0 8.0 48 5.9 SE 20 28 11 15 1015.3 1014.8 0.0
27/03:30am 18.8 14.9 8.5 51 5.4 SE 19 24 10 13 1015.1 1014.6 0.0
27/03:00am 18.7 15.9 8.4 51 5.4 ESE 13 15 7 8 1014.8 1014.3 0.0
27/02:30am 18.2 15.2 7.9 51 5.3 SE 13 15 7 8 1015.0 1014.5 0.0
27/02:00am 17.6 14.6 7.9 53 5.0 SSE 13 20 7 11 1014.9 1014.4 0.0
27/01:30am 19.4 17.1 7.5 46 6.1 ESE 9 13 5 7 1014.9 1014.4 0.0
27/01:00am 19.0 15.3 7.8 48 5.8 SE 17 20 9 11 1015.1 1014.6 0.0
27/12:30am 17.6 15.6 8.5 55 4.7 ESE 9 24 5 13 1014.9 1014.4 0.0
27/12:00am 17.7 16.2 8.6 55 4.7 ENE 6 7 3 4 1014.6 1014.1 0.0
 
Date/Time
CST
Temp
°C
App
Temp
°C
Dew
Point
°C
Rel
Hum
%
Delta-T
°C
Wind Press
QNH
hPa
Press
MSL
hPa
Rain since
9am
mm
Dir  Spd
km/h
Gust
km/h
Spd
kts
Gust
kts
26/11:30pm 17.5 15.1 8.6 56 4.6 SE 11 13 6 7 1014.9 1014.4 0.0
26/11:00pm 18.0 16.0 8.8 55 4.8 SE 9 11 5 6 1015.0 1014.5 0.0
26/10:30pm 18.4 16.0 8.7 53 5.1 SE 11 15 6 8 1015.0 1014.5 0.0
26/10:00pm 18.5 17.0 9.0 54 5.0 SE 7 11 4 6 1014.8 1014.3 0.0
26/09:30pm 18.6 16.7 9.1 54 5.0 SSE 9 11 5 6 1014.7 1014.2 0.0
26/09:00pm 19.5 17.3 9.4 52 5.4 SSE 11 13 6 7 1014.5 1014.0 0.0
26/08:30pm 21.0 19.4 8.9 46 6.4 ESE 7 7 4 4 1014.2 1013.7 0.0
26/08:00pm 23.1 21.6 9.1 41 7.6 E 7 9 4 5 1013.9 1013.4 0.0
26/07:30pm 23.4 21.7 8.3 38 8.1 ESE 7 9 4 5 1013.5 1013.0 0.0
26/07:00pm 26.4 24.1 7.4 30 10.1 ESE 9 13 5 7 1013.1 1012.6 0.0
26/06:30pm 28.1 25.3 6.8 26 11.4 ESE 11 13 6 7 1012.7 1012.2 0.0
26/06:00pm 30.0 26.4 6.6 23 12.6 ESE 15 20 8 11 1012.2 1011.7 0.0
26/05:30pm 30.9 26.4 6.0 21 13.3 ESE 19 26 10 14 1011.9 1011.4 0.0
26/05:00pm 31.5 27.7 5.8 20 13.7 SE 15 24 8 13 1011.7 1011.2 0.0
26/04:30pm 31.7 27.6 6.0 20 13.8 E 17 26 9 14 1011.7 1011.2 0.0
26/04:00pm 31.7 27.3 6.7 21 13.6 ESE 19 32 10 17 1011.7 1011.2 0.0
26/03:30pm 32.0 27.1 7.0 21 13.7 ESE 22 32 12 17 1011.7 1011.2 0.0
26/03:26pm 31.4 27.1 7.1 22 13.3 E 19 32 10 17 1011.7 1011.2 0.0
26/03:00pm 31.6 27.2 7.3 22 13.3 E 20 30 11 16 1012.0 1011.5 0.0
26/02:30pm 31.5 27.2 7.9 23 13.1 SE 20 33 11 18 1012.6 1012.1 0.0
26/02:19pm 30.9 26.4 8.6 25 12.4 E 22 35 12 19 1013.0 1012.5 0.0
26/02:00pm 31.1 26.1 8.2 24 12.7 SE 24 32 13 17 1013.3 1012.8 0.0
26/01:30pm 30.1 25.9 9.6 28 11.6 SE 22 33 12 18 1013.9 1013.4 0.0
26/01:00pm 29.6 25.4 11.2 32 10.6 ESE 24 35 13 19 1014.4 1013.9 0.0
26/12:30pm 29.9 26.8 12.3 33 10.4 E 20 33 11 18 1015.0 1014.5 0.0
26/12:00pm 28.5 24.3 12.4 37 9.4 SE 26 35 14 19 1015.6 1015.1 0.0
26/11:30am 27.5 23.3 12.3 39 8.9 E 26 37 14 20 1016.1 1015.6 0.0
26/11:00am 27.6 24.0 13.2 41 8.5 ESE 24 37 13 20 1016.4 1015.9 0.0
26/10:30am 26.5 22.7 13.6 45 7.6 ESE 26 33 14 18 1016.7 1016.2 0.0
26/10:00am 26.2 22.6 14.3 48 7.1 ESE 26 37 14 20 1016.8 1016.3 0.0
26/09:30am 25.6 22.9 14.7 51 6.5 ESE 22 32 12 17 1016.8 1016.3 0.0
26/09:00am 24.1 21.9 14.8 56 5.6 ESE 20 24 11 13 1016.8 1016.3 0.0
26/08:30am 22.5 20.9 15.1 63 4.4 ESE 17 22 9 12 1016.6 1016.1 0.0
26/08:00am 19.5 19.0 13.7 69 3.3 SE 9 13 5 7 1016.4 1015.9 0.0
26/07:30am 17.7 17.0 13.2 75 2.5 SE 9 11 5 6 1016.1 1015.6 0.0
26/07:00am 17.3 16.5 13.0 76 2.4 ESE 9 13 5 7 1015.6 1015.1 0.0
26/06:30am 16.5 15.7 12.8 79 2.1 SE 9 11 5 6 1015.4 1014.9 0.0
26/06:00am 16.7 15.9 13.0 79 2.1 SE 9 11 5 6 1015.3 1014.8 0.0
26/05:30am 16.9 16.1 13.0 78 2.2 SE 9 11 5 6 1014.9 1014.4 0.0
26/05:00am 17.4 16.6 12.9 75 2.5 SE 9 11 5 6 1014.6 1014.1 0.0
26/04:30am 17.7 16.6 13.2 75 2.5 SE 11 13 6 7 1014.4 1013.9 0.0
26/04:00am 18.9 17.9 13.3 70 3.2 SE 11 13 6 7 1014.1 1013.6 0.0
26/03:30am 19.4 17.9 13.1 67 3.6 SSE 13 17 7 9 1014.1 1013.6 0.0
26/03:00am 21.0 18.9 13.7 63 4.2 ESE 17 26 9 14 1014.0 1013.5 0.0
26/02:30am 17.3 15.6 12.6 74 2.6 SSE 13 15 7 8 1013.8 1013.3 0.0
26/02:00am 18.6 18.3 12.6 68 3.4 ESE 6 7 3 4 1013.9 1013.4 0.0
26/01:30am 19.1 18.3 12.8 67 3.6 SSE 9 11 5 6 1014.1 1013.6 0.0
26/01:00am 20.0 19.5 12.5 62 4.2 ESE 7 9 4 5 1014.1 1013.6 0.0
26/12:30am 20.6 20.3 12.6 60 4.5 ESE 6 9 3 5 1014.1 1013.6 0.0
26/12:00am 22.2 21.1 13.0 56 5.3 E 11 15 6 8 1014.1 1013.6 0.0
 
Date/Time
CST
Temp
°C
App
Temp
°C
Dew
Point
°C
Rel
Hum
%
Delta-T
°C
Wind Press
QNH
hPa
Press
MSL
hPa
Rain since
9am
mm
Dir  Spd
km/h
Gust
km/h
Spd
kts
Gust
kts
25/11:30pm 20.9 20.1 12.8 60 4.6 SE 9 11 5 6 1014.1 1013.6 0.0
25/11:00pm 20.9 19.6 12.6 59 4.7 SE 11 13 6 7 1014.0 1013.5 0.0
25/10:30pm 21.1 20.3 12.8 59 4.7 SE 9 11 5 6 1013.9 1013.4 0.0
25/10:00pm 23.7 22.7 12.4 49 6.5 ENE 9 13 5 7 1013.7 1013.2 0.0
25/09:30pm 23.6 22.7 12.6 50 6.3 E 9 11 5 6 1013.7 1013.2 0.0
25/09:00pm 23.1 22.1 12.4 51 6.1 SE 9 11 5 6 1013.6 1013.1 0.0
25/08:30pm 24.1 23.4 12.1 47 6.9 E 7 9 4 5 1013.3 1012.8 0.0
25/08:00pm 26.6 25.3 11.1 38 8.8 E 9 11 5 6 1012.9 1012.4 0.0
25/07:30pm 27.8 26.4 10.9 35 9.7 E 9 13 5 7 1012.6 1012.1 0.0
25/07:00pm 29.1 27.3 10.7 32 10.5 E 11 15 6 8 1012.4 1011.9 0.0
25/06:30pm 30.4 27.7 10.4 29 11.5 ESE 15 19 8 10 1012.1 1011.6 0.0
25/06:00pm 31.5 28.4 10.2 27 12.2 ESE 17 22 9 12 1011.9 1011.4 0.0
25/05:30pm 32.3 28.7 9.8 25 12.9 E 19 28 10 15 1011.5 1011.0 0.0
25/05:00pm 32.6 28.9 10.0 25 13.0 E 20 35 11 19 1011.3 1010.8 0.0
25/04:30pm 33.0 28.4 9.7 24 13.4 E 24 32 13 17 1011.3 1010.8 0.0
25/04:00pm 32.7 27.8 10.1 25 13.0 E 26 39 14 21 1011.4 1010.9 0.0
25/03:30pm 33.7 29.3 10.3 24 13.6 E 24 35 13 19 1011.4 1010.9 0.0
25/03:00pm 32.9 28.5 10.3 25 13.1 E 24 41 13 22 1011.7 1011.2 0.0
25/02:30pm 32.6 27.9 10.6 26 12.8 ESE 26 35 14 19 1012.0 1011.5 0.0
25/02:00pm 32.7 28.6 11.3 27 12.6 ESE 24 43 13 23 1012.4 1011.9 0.0
25/01:52pm 32.4 28.6 11.0 27 12.5 ESE 22 33 12 18 1012.6 1012.1 0.0
25/01:30pm 32.4 28.2 11.0 27 12.5 ESE 24 35 13 19 1013.1 1012.6 0.0
25/01:00pm 31.7 26.9 11.5 29 11.8 ESE 28 39 15 21 1013.5 1013.0 0.0
25/12:30pm 31.2 26.5 12.1 31 11.3 E 28 41 15 22 1014.2 1013.7 0.0
25/12:00pm 31.1 26.6 12.5 32 11.0 E 28 43 15 23 1014.5 1014.0 0.0
25/11:30am 30.0 25.8 12.4 34 10.4 E 26 37 14 20 1015.2 1014.7 0.0
25/11:00am 29.6 25.8 12.5 35 10.1 ESE 24 39 13 21 1015.8 1015.2 0.0
25/10:30am 28.0 25.4 13.9 42 8.4 ESE 20 30 11 16 1016.1 1015.6 0.0
25/10:00am 27.0 25.5 15.4 49 7.1 SE 17 24 9 13 1016.3 1015.8 0.0
25/09:30am 25.6 23.8 15.6 54 6.1 ESE 19 24 10 13 1016.2 1015.7 0.0
25/09:00am 24.1 23.9 15.6 59 5.2 ESE 11 15 6 8 1015.9 1015.3 0.0
25/08:30am 21.7 20.6 15.3 67 3.8 ESE 15 19 8 10 1015.5 1015.0 0.0
25/08:00am 20.0 19.9 15.0 73 3.0 SE 9 13 5 7 1015.3 1014.8 0.0
25/07:30am 18.1 18.3 14.6 80 2.0 SE 7 9 4 5 1014.9 1014.4 0.0
25/07:00am 18.0 18.0 14.3 79 2.1 ESE 7 9 4 5 1014.4 1013.9 0.0
25/06:30am 18.3 18.4 14.4 78 2.3 ESE 7 11 4 6 1014.1 1013.6 0.0
25/06:00am 18.4 17.8 14.5 78 2.3 SE 11 15 6 8 1013.8 1013.3 0.0
25/05:30am 18.2 17.1 14.3 78 2.3 SSE 13 17 7 9 1013.5 1013.0 0.0
25/05:00am 17.4 16.2 13.9 80 2.0 SSE 13 22 7 12 1013.1 1012.6 0.0

Other Formats:

Comma delimited format used in spreadsheet applications
http://www.bom.gov.au/fwo/IDD60801/IDD60801.94131.axf

JavaScript Object Notation format (JSON) in row-major order
http://www.bom.gov.au/fwo/IDD60801/IDD60801.94131.json